KJOT

Joliet Regional Airport

Joliet, Illinois, USA
METAR KJOT 181515Z AUTO 22006KT 10SM CLR M06/M11 A3017 RMK AO2 T10621109
Observed Flight Rules
Jan-18 @ 15:15 UTC (31 minutes ago) Visual Flight Rules
Wind Visibility Clouds
220° at 6 knots 10 miles
  • Clear skies
Temperatures Readings
Current -6°C / 21°F
Dewpoint -11°C / 12°F
Humidity 68%
Altimeter 30.17" Hg
Pressure 1022 hPa
Elevation 177
METAR KJOT 181515Z AUTO 22006KT 10SM CLR M06/M11 A3017 RMK AO2 T10621109
Observed Flight Rules
Jan-18 @ 15:15 UTC
(31 minutes ago)
VFR
Wind Visibility
220° at 6 knots 10 miles
Clouds
  • Clear skies
Temperature Dewpoint
-6°C / 21°F -11°C / 12°F
Humidity Altimeter Pressure
68% 30.17" Hg 1022 hPa